createdAt,value
2023-01-25T00:00:06.149Z,19.40
2023-01-25T00:03:07.705Z,22.47
2023-01-25T00:06:09.387Z,23.60
2023-01-25T00:09:11.752Z,23.00
2023-01-25T00:12:13.468Z,20.73
2023-01-25T00:15:15.564Z,24.30
2023-01-25T00:18:17.209Z,23.17
2023-01-25T00:21:20.070Z,24.23
2023-01-25T00:24:23.239Z,18.20
2023-01-25T00:27:24.960Z,18.53
2023-01-25T00:30:26.613Z,20.70
2023-01-25T00:33:34.303Z,21.77
2023-01-25T00:36:38.983Z,22.20
2023-01-25T00:39:40.644Z,19.87
2023-01-25T00:42:42.414Z,22.93
2023-01-25T00:45:45.936Z,19.23
2023-01-25T00:48:47.931Z,18.73
2023-01-25T00:51:49.940Z,19.77
2023-01-25T00:54:51.740Z,19.30
2023-01-25T00:57:53.343Z,18.70
2023-01-25T01:00:55.780Z,23.13
2023-01-25T01:03:58.144Z,19.43
2023-01-25T01:06:59.852Z,17.03
2023-01-25T01:10:01.787Z,19.70
2023-01-25T01:13:03.589Z,25.90
2023-01-25T01:16:08.484Z,18.80
2023-01-25T01:19:10.821Z,18.27
2023-01-25T01:22:12.431Z,19.53
2023-01-25T01:25:14.087Z,19.27
2023-01-25T01:28:15.683Z,18.07
2023-01-25T01:31:21.647Z,22.10
2023-01-25T01:34:32.212Z,22.57
2023-01-25T01:37:33.992Z,22.63
2023-01-25T01:40:35.605Z,22.90
2023-01-25T01:43:37.347Z,21.73
2023-01-25T01:46:41.530Z,20.87
2023-01-25T01:50:08.207Z,21.63
2023-01-25T01:53:10.894Z,19.90
2023-01-25T01:56:16.697Z,21.33
2023-01-25T01:59:19.589Z,18.53
2023-01-25T02:02:22.720Z,17.57
2023-01-25T02:05:31.424Z,20.83
2023-01-25T02:08:34.166Z,17.07
2023-01-25T02:11:37.309Z,18.27
2023-01-25T02:14:41.421Z,18.83
2023-01-25T02:17:43.307Z,20.80
2023-01-25T02:20:53.241Z,20.87
2023-01-25T02:24:01.421Z,20.17
2023-01-25T02:27:04.485Z,21.57
2023-01-25T02:30:06.824Z,20.67
2023-01-25T02:33:08.579Z,21.27
2023-01-25T02:36:10.567Z,21.90
2023-01-25T02:39:20.282Z,19.67
2023-01-25T02:42:22.620Z,24.73
2023-01-25T02:45:26.863Z,21.40
2023-01-25T02:48:28.468Z,22.73
2023-01-25T02:51:31.477Z,22.00
2023-01-25T02:54:33.182Z,20.43
2023-01-25T02:57:38.764Z,22.23
2023-01-25T03:00:40.663Z,18.50
2023-01-25T03:03:42.544Z,23.97
2023-01-25T03:06:44.435Z,19.83
2023-01-25T03:09:46.782Z,19.20
2023-01-25T03:12:48.519Z,16.57
2023-01-25T03:15:50.310Z,17.70
2023-01-25T03:18:55.976Z,18.47
2023-01-25T03:21:59.154Z,13.93
2023-01-25T03:25:02.336Z,15.67
2023-01-25T03:28:04.165Z,16.80
2023-01-25T03:31:09.273Z,16.17
2023-01-25T03:34:11.298Z,19.80
2023-01-25T03:37:15.925Z,14.70
2023-01-25T03:40:18.559Z,13.80
2023-01-25T03:43:25.069Z,14.93
2023-01-25T03:46:27.695Z,12.63
2023-01-25T03:49:29.586Z,13.10
2023-01-25T03:52:38.381Z,14.00
2023-01-25T03:55:42.350Z,16.60
2023-01-25T03:58:44.989Z,13.37
2023-01-25T04:01:47.364Z,13.13
2023-01-25T04:04:49.262Z,14.20
2023-01-25T04:07:53.675Z,13.97
2023-01-25T04:11:05.187Z,17.53
2023-01-25T04:14:06.822Z,14.97
2023-01-25T04:17:18.146Z,13.20
2023-01-25T04:20:29.013Z,12.63
2023-01-25T04:23:31.542Z,14.30
2023-01-25T04:26:33.444Z,17.03
2023-01-25T04:29:41.762Z,17.13
2023-01-25T04:32:49.226Z,14.67
2023-01-25T04:35:59.363Z,15.53
2023-01-25T04:39:00.991Z,15.27
2023-01-25T04:42:03.505Z,13.47
2023-01-25T04:45:05.657Z,17.00
2023-01-25T04:48:10.845Z,16.80
2023-01-25T04:51:18.381Z,15.50
2023-01-25T04:54:20.466Z,19.47
2023-01-25T04:57:22.188Z,15.13
2023-01-25T05:00:28.002Z,17.97
2023-01-25T05:03:30.926Z,16.23
2023-01-25T05:06:33.423Z,18.63
2023-01-25T05:09:35.289Z,19.33
2023-01-25T05:12:37.606Z,17.77
2023-01-25T05:15:41.242Z,13.43
2023-01-25T05:18:48.979Z,17.43
2023-01-25T05:22:07.531Z,16.30
2023-01-25T05:25:35.752Z,18.00
2023-01-25T05:28:38.402Z,21.80
2023-01-25T05:32:04.599Z,26.90
2023-01-25T05:35:07.577Z,15.03
2023-01-25T05:38:09.616Z,24.37
2023-01-25T05:41:11.534Z,29.07
2023-01-25T05:44:13.471Z,19.17
2023-01-25T05:47:20.141Z,17.27
2023-01-25T05:50:22.411Z,23.63
2023-01-25T05:53:34.736Z,14.63
2023-01-25T05:56:36.849Z,22.53
2023-01-25T05:59:38.866Z,15.60
2023-01-25T06:02:43.816Z,15.60
2023-01-25T06:05:54.916Z,12.90
2023-01-25T06:08:57.811Z,15.70
2023-01-25T06:12:00.380Z,21.33
2023-01-25T06:15:02.206Z,27.83
2023-01-25T06:18:04.040Z,14.13
2023-01-25T06:21:20.798Z,12.13
2023-01-25T06:24:22.541Z,20.77
2023-01-25T06:27:24.262Z,11.87
2023-01-25T06:30:26.194Z,10.47
2023-01-25T06:33:27.876Z,15.50
2023-01-25T06:36:29.891Z,16.70
2023-01-25T06:39:31.537Z,14.80
2023-01-25T06:42:33.591Z,10.90
2023-01-25T06:45:35.255Z,11.40
2023-01-25T06:48:37.005Z,15.67
2023-01-25T06:51:38.655Z,11.13
2023-01-25T06:54:40.380Z,25.00
2023-01-25T06:57:42.083Z,20.33
2023-01-25T07:00:43.811Z,14.77
2023-01-25T07:03:48.357Z,24.10
2023-01-25T07:06:50.029Z,18.53
2023-01-25T07:09:51.661Z,17.80
2023-01-25T07:12:53.349Z,18.90
2023-01-25T07:16:08.200Z,29.23
2023-01-25T07:19:11.068Z,18.57
2023-01-25T07:22:12.737Z,21.70
2023-01-25T07:25:14.435Z,20.93
2023-01-25T07:28:17.353Z,33.40
2023-01-25T07:31:19.520Z,24.80
2023-01-25T07:34:21.257Z,30.00
2023-01-25T07:37:22.933Z,22.23
2023-01-25T07:40:25.379Z,12.60
2023-01-25T07:43:27.369Z,18.90
2023-01-25T07:46:29.056Z,15.00
2023-01-25T07:49:30.624Z,20.57
2023-01-25T07:52:33.329Z,15.80
2023-01-25T07:55:35.033Z,14.00
2023-01-25T07:58:36.793Z,24.77
2023-01-25T08:01:39.079Z,25.97
2023-01-25T08:04:42.555Z,28.37
2023-01-25T08:07:44.338Z,21.53
2023-01-25T08:10:46.031Z,18.87
2023-01-25T08:13:51.041Z,21.50
2023-01-25T08:16:53.189Z,18.07
2023-01-25T08:19:55.467Z,20.53
2023-01-25T08:22:57.095Z,26.57
2023-01-25T08:26:06.911Z,29.30
2023-01-25T08:29:10.014Z,32.97
2023-01-25T08:32:11.691Z,25.40
2023-01-25T08:35:13.477Z,31.83
2023-01-25T08:38:17.299Z,30.90
2023-01-25T08:41:21.892Z,36.93
2023-01-25T08:44:25.904Z,45.67
2023-01-25T08:47:27.610Z,23.27
2023-01-25T08:50:29.281Z,24.37
2023-01-25T08:53:31.698Z,28.93
2023-01-25T08:56:33.482Z,18.33
2023-01-25T08:59:35.069Z,24.83
2023-01-25T09:02:36.799Z,24.37
2023-01-25T09:05:39.580Z,27.17
2023-01-25T09:08:41.491Z,16.80
2023-01-25T09:11:43.140Z,15.80
2023-01-25T09:14:44.771Z,30.53
2023-01-25T09:17:46.384Z,65.83
2023-01-25T09:20:47.997Z,15.40
2023-01-25T09:23:57.663Z,13.30
2023-01-25T09:27:06.052Z,10.97
2023-01-25T09:30:18.179Z,11.67
2023-01-25T09:33:25.321Z,13.07
2023-01-25T09:36:27.125Z,7.67
2023-01-25T09:39:28.827Z,9.60
2023-01-25T09:42:45.755Z,13.67
2023-01-25T09:45:47.666Z,16.73
2023-01-25T09:49:06.787Z,7.93
2023-01-25T09:52:09.062Z,6.20
2023-01-25T09:55:15.298Z,12.87
2023-01-25T09:58:25.827Z,14.43
2023-01-25T10:01:38.195Z,22.73
2023-01-25T10:04:42.552Z,10.37
2023-01-25T10:07:55.040Z,6.40
2023-01-25T10:11:16.525Z,10.20
2023-01-25T10:14:18.861Z,10.73
2023-01-25T10:17:27.165Z,10.87
2023-01-25T10:20:35.950Z,11.30
2023-01-25T10:23:47.466Z,12.30
2023-01-25T10:26:52.597Z,5.57
2023-01-25T10:29:56.950Z,16.13
2023-01-25T10:33:00.489Z,5.63
2023-01-25T10:36:03.252Z,11.83
2023-01-25T10:39:07.687Z,6.77
2023-01-25T10:42:11.882Z,9.47
2023-01-25T10:45:16.870Z,7.03
2023-01-25T10:48:23.093Z,9.50
2023-01-25T10:51:32.134Z,8.73
2023-01-25T10:54:33.775Z,10.83
2023-01-25T10:57:35.776Z,10.77
2023-01-25T11:00:38.604Z,5.67
2023-01-25T11:03:41.368Z,6.43
2023-01-25T11:06:47.113Z,7.43
2023-01-25T11:09:48.691Z,8.50
2023-01-25T11:13:10.166Z,8.10
2023-01-25T11:16:11.915Z,4.73
2023-01-25T11:19:26.147Z,13.23
2023-01-25T11:22:29.287Z,5.47
2023-01-25T11:25:32.064Z,9.30
2023-01-25T11:28:33.734Z,7.20
2023-01-25T11:31:35.957Z,12.70
2023-01-25T11:34:37.634Z,6.47
2023-01-25T11:37:57.958Z,8.67
2023-01-25T11:41:08.719Z,10.37
2023-01-25T11:44:22.642Z,8.27
2023-01-25T11:47:33.123Z,13.97
2023-01-25T11:50:53.036Z,14.60
2023-01-25T11:54:00.732Z,8.00
2023-01-25T11:57:22.563Z,5.33
2023-01-25T12:00:30.030Z,22.30
2023-01-25T12:03:49.201Z,12.53
2023-01-25T12:06:59.245Z,19.17
2023-01-25T12:10:04.828Z,26.57
2023-01-25T12:13:31.598Z,19.23
2023-01-25T12:16:51.828Z,14.53
2023-01-25T12:20:13.794Z,7.27
2023-01-25T12:23:24.716Z,6.03
2023-01-25T12:26:30.387Z,7.23
2023-01-25T12:29:41.056Z,15.07
2023-01-25T12:32:59.510Z,10.07
2023-01-25T12:36:04.133Z,7.87
2023-01-25T12:39:24.746Z,11.57
2023-01-25T12:42:46.651Z,9.90
2023-01-25T12:45:50.050Z,15.10
2023-01-25T12:48:53.741Z,12.13
2023-01-25T12:51:56.790Z,8.43
2023-01-25T12:55:02.440Z,10.73
2023-01-25T12:58:12.616Z,11.67
2023-01-25T13:01:23.253Z,7.07
2023-01-25T13:04:24.887Z,9.60
2023-01-25T13:07:33.153Z,10.97
2023-01-25T13:10:39.458Z,18.07
2023-01-25T13:13:41.178Z,16.73
2023-01-25T13:16:45.329Z,14.17
2023-01-25T13:19:47.645Z,20.73
2023-01-25T13:22:49.232Z,8.67
2023-01-25T13:25:51.838Z,9.73
2023-01-25T13:29:00.588Z,8.73
2023-01-25T13:32:03.231Z,6.77
2023-01-25T13:35:05.888Z,10.40
2023-01-25T13:38:26.244Z,7.53
2023-01-25T13:41:27.990Z,7.97
2023-01-25T13:44:31.032Z,8.83
2023-01-25T13:47:35.946Z,10.77
2023-01-25T13:50:40.207Z,9.30
2023-01-25T13:53:43.402Z,15.13
2023-01-25T13:56:45.772Z,15.23
2023-01-25T13:59:49.516Z,11.50
2023-01-25T14:02:54.562Z,11.27
2023-01-25T14:05:57.542Z,10.00
2023-01-25T14:09:01.047Z,8.87
2023-01-25T14:12:03.489Z,13.00
2023-01-25T14:15:20.362Z,18.43
2023-01-25T14:18:26.632Z,18.13
2023-01-25T14:21:29.169Z,24.00
2023-01-25T14:24:30.995Z,43.37
2023-01-25T14:27:33.814Z,40.23
2023-01-25T14:30:36.391Z,20.97
2023-01-25T14:33:44.595Z,26.43
2023-01-25T14:36:46.960Z,25.43
2023-01-25T14:39:49.411Z,32.33
2023-01-25T14:42:52.816Z,53.37
2023-01-25T14:45:54.542Z,24.10
2023-01-25T14:49:14.625Z,20.83
2023-01-25T14:52:20.577Z,18.03
2023-01-25T14:55:22.244Z,62.47
2023-01-25T14:58:24.900Z,25.93
2023-01-25T15:01:46.768Z,21.40
2023-01-25T15:04:54.590Z,24.13
2023-01-25T15:08:08.608Z,24.13
2023-01-25T15:11:45.382Z,42.80
2023-01-25T15:14:54.112Z,16.57
2023-01-25T15:17:59.012Z,16.50
2023-01-25T15:21:00.712Z,17.30
2023-01-25T15:24:06.802Z,19.90
2023-01-25T15:27:10.471Z,29.80
2023-01-25T15:30:13.429Z,60.03
2023-01-25T15:33:22.332Z,30.30
2023-01-25T15:36:24.352Z,24.60
2023-01-25T15:39:26.676Z,34.87
2023-01-25T15:42:29.020Z,21.87
2023-01-25T15:45:30.711Z,25.50
2023-01-25T15:48:36.731Z,30.13
2023-01-25T15:51:38.402Z,22.50
2023-01-25T15:54:42.270Z,30.20
2023-01-25T15:57:47.721Z,23.67
2023-01-25T16:00:50.371Z,22.00
2023-01-25T16:03:52.064Z,30.23
2023-01-25T16:06:54.531Z,22.70
2023-01-25T16:09:56.319Z,22.27
2023-01-25T16:12:59.407Z,43.27
2023-01-25T16:16:04.615Z,43.83
2023-01-25T16:19:06.591Z,26.47
2023-01-25T16:22:08.304Z,42.30
2023-01-25T16:25:13.232Z,30.43
2023-01-25T16:28:15.757Z,31.33
2023-01-25T16:31:31.758Z,35.70
2023-01-25T16:34:40.142Z,91.13
2023-01-25T16:37:41.962Z,44.70
2023-01-25T16:40:43.795Z,44.63
2023-01-25T16:43:47.201Z,45.43
2023-01-25T16:46:50.347Z,40.33
2023-01-25T16:49:52.499Z,28.07
2023-01-25T16:52:54.945Z,31.43
2023-01-25T16:55:58.735Z,31.10
2023-01-25T16:59:01.670Z,31.77
2023-01-25T17:02:03.329Z,38.93
2023-01-25T17:05:05.725Z,36.13
2023-01-25T17:08:08.160Z,29.90
2023-01-25T17:11:10.283Z,34.37
2023-01-25T17:14:14.549Z,34.83
2023-01-25T17:17:16.436Z,36.20
2023-01-25T17:20:19.151Z,35.27
2023-01-25T17:23:22.493Z,38.90
2023-01-25T17:26:25.204Z,30.23
2023-01-25T17:29:27.222Z,37.93
2023-01-25T17:32:28.875Z,40.80
2023-01-25T17:35:30.784Z,20.17
2023-01-25T17:38:32.530Z,18.63
2023-01-25T17:41:35.623Z,20.63
2023-01-25T17:44:37.468Z,26.33
2023-01-25T17:47:43.285Z,36.17
2023-01-25T17:50:45.263Z,34.83
2023-01-25T17:53:47.270Z,108.13
2023-01-25T17:56:49.250Z,43.80
2023-01-25T17:59:50.966Z,35.13
2023-01-25T18:02:53.872Z,39.60
2023-01-25T18:05:58.438Z,38.13
2023-01-25T18:09:01.645Z,32.30
2023-01-25T18:12:03.331Z,38.23
2023-01-25T18:15:05.361Z,41.37
2023-01-25T18:18:08.356Z,60.47
2023-01-25T18:21:11.903Z,56.97
2023-01-25T18:24:22.980Z,54.10
2023-01-25T18:27:25.977Z,71.67
2023-01-25T18:30:43.274Z,61.33
2023-01-25T18:33:45.222Z,52.03
2023-01-25T18:36:48.606Z,31.60
2023-01-25T18:39:52.286Z,34.60
2023-01-25T18:42:54.137Z,31.40
2023-01-25T18:45:56.588Z,29.30
2023-01-25T18:48:58.276Z,45.93
2023-01-25T18:52:10.958Z,71.33
2023-01-25T18:55:14.153Z,34.10
2023-01-25T18:58:16.193Z,30.90
2023-01-25T19:01:19.722Z,33.83
2023-01-25T19:04:21.601Z,47.93
2023-01-25T19:07:23.258Z,39.30
2023-01-25T19:10:24.867Z,34.67
2023-01-25T19:13:27.487Z,32.53
2023-01-25T19:16:29.796Z,28.07
2023-01-25T19:19:34.029Z,28.00
2023-01-25T19:22:35.946Z,22.17
2023-01-25T19:25:38.454Z,34.47
2023-01-25T19:28:40.199Z,40.90
2023-01-25T19:31:42.240Z,35.10
2023-01-25T19:34:44.288Z,44.10
2023-01-25T19:37:46.054Z,34.20
2023-01-25T19:40:47.633Z,28.80
2023-01-25T19:43:59.615Z,35.47
2023-01-25T19:47:01.261Z,38.57
2023-01-25T19:50:03.535Z,39.30
2023-01-25T19:53:05.175Z,48.67
2023-01-25T19:56:07.969Z,45.07
2023-01-25T19:59:16.902Z,59.57
2023-01-25T20:02:18.623Z,43.23
2023-01-25T20:05:21.400Z,30.27
2023-01-25T20:08:23.238Z,36.47
2023-01-25T20:11:26.345Z,39.13
2023-01-25T20:14:28.134Z,38.00
2023-01-25T20:17:30.111Z,35.50
2023-01-25T20:20:31.800Z,37.43
2023-01-25T20:23:34.906Z,37.07
2023-01-25T20:26:39.052Z,32.60
2023-01-25T20:29:40.784Z,29.57
2023-01-25T20:32:42.597Z,29.63
2023-01-25T20:35:47.526Z,35.03
2023-01-25T20:38:49.585Z,29.63
2023-01-25T20:41:53.774Z,29.23
2023-01-25T20:44:55.537Z,32.73
2023-01-25T20:47:57.241Z,35.03
2023-01-25T20:51:03.254Z,33.50
2023-01-25T20:54:05.590Z,22.63
2023-01-25T20:57:07.530Z,29.97
2023-01-25T21:00:09.709Z,29.27
2023-01-25T21:03:11.612Z,37.47
2023-01-25T21:06:13.508Z,19.40
2023-01-25T21:09:15.562Z,27.17
2023-01-25T21:12:17.736Z,26.97
2023-01-25T21:15:19.423Z,26.67
2023-01-25T21:18:21.156Z,24.70
2023-01-25T21:21:26.002Z,30.50
2023-01-25T21:24:27.970Z,25.37
2023-01-25T21:27:30.883Z,19.80
2023-01-25T21:30:32.696Z,21.70
2023-01-25T21:33:34.814Z,26.93
2023-01-25T21:36:36.608Z,20.43
2023-01-25T21:39:38.266Z,26.00
2023-01-25T21:42:39.829Z,25.03
2023-01-25T21:45:59.766Z,23.02
2023-01-25T21:49:20.973Z,19.33
2023-01-25T21:52:22.586Z,19.57
2023-01-25T21:55:24.255Z,25.17
2023-01-25T21:58:25.908Z,20.10
2023-01-25T22:01:27.553Z,20.63
2023-01-25T22:04:29.282Z,21.53
2023-01-25T22:07:32.686Z,20.87
2023-01-25T22:10:35.179Z,21.27
2023-01-25T22:13:37.185Z,17.93
2023-01-25T22:16:38.846Z,19.33
2023-01-25T22:19:40.509Z,16.17
2023-01-25T22:22:42.115Z,22.07
2023-01-25T22:25:43.712Z,17.73
2023-01-25T22:28:51.502Z,17.33
2023-01-25T22:31:53.219Z,19.20
2023-01-25T22:34:55.172Z,20.13
2023-01-25T22:37:56.766Z,21.57
2023-01-25T22:41:03.704Z,19.27
2023-01-25T22:44:05.761Z,20.93
2023-01-25T22:47:07.362Z,20.47
2023-01-25T22:50:09.688Z,20.77
2023-01-25T22:53:11.626Z,20.50
2023-01-25T22:56:14.536Z,19.13
2023-01-25T22:59:19.004Z,21.33
2023-01-25T23:02:20.707Z,22.13
2023-01-25T23:05:22.346Z,18.50
2023-01-25T23:08:23.921Z,18.90
2023-01-25T23:11:26.069Z,15.73
2023-01-25T23:14:45.979Z,18.70
2023-01-25T23:18:06.305Z,18.97
2023-01-25T23:21:08.081Z,18.70
2023-01-25T23:24:10.073Z,16.43
2023-01-25T23:27:12.676Z,22.90
2023-01-25T23:30:14.502Z,15.07
2023-01-25T23:33:16.114Z,18.10
2023-01-25T23:36:38.964Z,18.13
2023-01-25T23:39:40.613Z,15.67
2023-01-25T23:42:42.249Z,14.97
2023-01-25T23:45:44.577Z,14.53
2023-01-25T23:48:46.446Z,16.30
2023-01-25T23:51:48.027Z,16.33
2023-01-25T23:54:49.664Z,18.87
2023-01-25T23:57:52.639Z,20.77
